sensor_id;sensor_type;location;lat;lon;timestamp;pressure;altitude;pressure_sealevel;temperature;humidity
77482;BME280;66582;43.004;-75.010;2023-02-15T00:00:39;100621.96;;;1.42;57.14
77482;BME280;66582;43.004;-75.010;2023-02-15T00:03:04;100626.21;;;1.28;58.46
77482;BME280;66582;43.004;-75.010;2023-02-15T00:05:31;100632.41;;;0.31;61.21
77482;BME280;66582;43.004;-75.010;2023-02-15T00:07:54;100635.27;;;-0.14;61.62
77482;BME280;66582;43.004;-75.010;2023-02-15T00:10:20;100637.70;;;0.89;59.02
77482;BME280;66582;43.004;-75.010;2023-02-15T00:12:45;100645.47;;;0.62;60.18
77482;BME280;66582;43.004;-75.010;2023-02-15T00:15:10;100643.84;;;0.57;60.60
77482;BME280;66582;43.004;-75.010;2023-02-15T00:17:35;100643.52;;;0.77;58.78
77482;BME280;66582;43.004;-75.010;2023-02-15T00:20:01;100640.38;;;2.09;57.58
77482;BME280;66582;43.004;-75.010;2023-02-15T00:22:26;100634.35;;;2.22;55.78
77482;BME280;66582;43.004;-75.010;2023-02-15T00:24:51;100634.62;;;2.85;55.20
77482;BME280;66582;43.004;-75.010;2023-02-15T00:27:16;100636.91;;;2.56;54.60
77482;BME280;66582;43.004;-75.010;2023-02-15T00:29:41;100638.40;;;1.72;55.12
77482;BME280;66582;43.004;-75.010;2023-02-15T00:32:07;100642.77;;;0.98;61.18
77482;BME280;66582;43.004;-75.010;2023-02-15T00:34:32;100644.90;;;-0.11;61.47
77482;BME280;66582;43.004;-75.010;2023-02-15T00:36:57;100640.09;;;0.13;62.09
77482;BME280;66582;43.004;-75.010;2023-02-15T00:39:22;100634.55;;;0.09;61.27
77482;BME280;66582;43.004;-75.010;2023-02-15T00:41:47;100631.66;;;0.75;59.61
77482;BME280;66582;43.004;-75.010;2023-02-15T00:44:14;100631.07;;;-0.15;62.16
77482;BME280;66582;43.004;-75.010;2023-02-15T00:46:39;100627.02;;;0.09;63.03
77482;BME280;66582;43.004;-75.010;2023-02-15T00:49:04;100629.04;;;-0.68;64.98
77482;BME280;66582;43.004;-75.010;2023-02-15T00:51:28;100625.70;;;-0.18;64.58
77482;BME280;66582;43.004;-75.010;2023-02-15T00:53:53;100623.85;;;-0.09;64.37
77482;BME280;66582;43.004;-75.010;2023-02-15T00:56:19;100623.30;;;-0.13;65.09
77482;BME280;66582;43.004;-75.010;2023-02-15T00:58:44;100623.19;;;0.10;63.20
77482;BME280;66582;43.004;-75.010;2023-02-15T01:01:11;100620.35;;;0.89;60.59
77482;BME280;66582;43.004;-75.010;2023-02-15T01:03:35;100622.77;;;0.24;61.23
77482;BME280;66582;43.004;-75.010;2023-02-15T01:06:00;100622.69;;;0.99;58.75
77482;BME280;66582;43.004;-75.010;2023-02-15T01:08:25;100633.77;;;1.00;58.96
77482;BME280;66582;43.004;-75.010;2023-02-15T01:10:50;100642.15;;;1.15;57.47
77482;BME280;66582;43.004;-75.010;2023-02-15T01:13:15;100647.82;;;1.09;57.20
77482;BME280;66582;43.004;-75.010;2023-02-15T01:15:40;100645.53;;;1.30;56.96
77482;BME280;66582;43.004;-75.010;2023-02-15T01:18:06;100646.38;;;0.53;59.73
77482;BME280;66582;43.004;-75.010;2023-02-15T01:20:33;100653.27;;;0.57;57.99
77482;BME280;66582;43.004;-75.010;2023-02-15T01:22:57;100655.45;;;-0.22;62.85
77482;BME280;66582;43.004;-75.010;2023-02-15T01:25:22;100652.39;;;0.50;60.58
77482;BME280;66582;43.004;-75.010;2023-02-15T01:27:47;100655.37;;;1.17;59.01
77482;BME280;66582;43.004;-75.010;2023-02-15T01:30:13;100661.32;;;0.42;61.23
77482;BME280;66582;43.004;-75.010;2023-02-15T01:32:36;100659.42;;;0.65;59.93
77482;BME280;66582;43.004;-75.010;2023-02-15T01:35:03;100660.01;;;0.16;60.87
77482;BME280;66582;43.004;-75.010;2023-02-15T01:37:27;100652.49;;;0.85;59.29
77482;BME280;66582;43.004;-75.010;2023-02-15T01:39:53;100657.57;;;-0.04;63.13
77482;BME280;66582;43.004;-75.010;2023-02-15T01:42:22;100659.92;;;0.18;61.71
77482;BME280;66582;43.004;-75.010;2023-02-15T01:44:48;100659.29;;;0.80;60.25
77482;BME280;66582;43.004;-75.010;2023-02-15T01:47:10;100665.29;;;0.05;61.19
77482;BME280;66582;43.004;-75.010;2023-02-15T01:49:33;100665.64;;;0.81;60.35
77482;BME280;66582;43.004;-75.010;2023-02-15T01:51:59;100670.58;;;1.22;59.45
77482;BME280;66582;43.004;-75.010;2023-02-15T01:54:29;100671.24;;;-0.48;63.32
77482;BME280;66582;43.004;-75.010;2023-02-15T01:56:50;100670.01;;;0.43;60.54
77482;BME280;66582;43.004;-75.010;2023-02-15T01:59:17;100669.15;;;-0.62;63.31
77482;BME280;66582;43.004;-75.010;2023-02-15T02:01:40;100670.34;;;-0.47;63.54
77482;BME280;66582;43.004;-75.010;2023-02-15T02:04:11;100675.04;;;-0.52;63.80
77482;BME280;66582;43.004;-75.010;2023-02-15T02:06:33;100665.65;;;1.01;60.05
77482;BME280;66582;43.004;-75.010;2023-02-15T02:08:57;100670.20;;;0.67;59.84
77482;BME280;66582;43.004;-75.010;2023-02-15T02:11:22;100665.87;;;-0.63;63.06
77482;BME280;66582;43.004;-75.010;2023-02-15T02:13:48;100663.91;;;-0.05;62.97
77482;BME280;66582;43.004;-75.010;2023-02-15T02:16:17;100662.66;;;0.13;61.81
77482;BME280;66582;43.004;-75.010;2023-02-15T02:18:48;100663.65;;;0.31;61.83
77482;BME280;66582;43.004;-75.010;2023-02-15T02:21:14;100652.67;;;0.93;58.91
77482;BME280;66582;43.004;-75.010;2023-02-15T02:23:49;100650.13;;;2.01;55.52
77482;BME280;66582;43.004;-75.010;2023-02-15T02:26:10;100635.10;;;3.29;52.20
77482;BME280;66582;43.004;-75.010;2023-02-15T02:28:35;100633.21;;;2.28;52.40
77482;BME280;66582;43.004;-75.010;2023-02-15T02:33:25;100637.38;;;2.74;52.97
77482;BME280;66582;43.004;-75.010;2023-02-15T02:35:43;100637.02;;;2.56;52.26
77482;BME280;66582;43.004;-75.010;2023-02-15T02:38:07;100638.75;;;2.28;52.49
77482;BME280;66582;43.004;-75.010;2023-02-15T02:40:34;100631.98;;;4.24;48.36
77482;BME280;66582;43.004;-75.010;2023-02-15T02:42:59;100630.06;;;4.19;47.67
77482;BME280;66582;43.004;-75.010;2023-02-15T02:45:25;100649.44;;;1.16;53.54
77482;BME280;66582;43.004;-75.010;2023-02-15T02:47:46;100645.74;;;1.34;54.97
77482;BME280;66582;43.004;-75.010;2023-02-15T02:50:16;100643.07;;;0.72;54.99
77482;BME280;66582;43.004;-75.010;2023-02-15T02:52:39;100620.75;;;3.66;49.96
77482;BME280;66582;43.004;-75.010;2023-02-15T02:55:01;100630.87;;;2.01;51.80
77482;BME280;66582;43.004;-75.010;2023-02-15T02:57:27;100624.20;;;3.01;50.74
77482;BME280;66582;43.004;-75.010;2023-02-15T02:59:52;100623.69;;;3.03;49.73
77482;BME280;66582;43.004;-75.010;2023-02-15T03:02:20;100614.70;;;3.77;48.24
77482;BME280;66582;43.004;-75.010;2023-02-15T03:04:45;100611.00;;;4.44;46.94
77482;BME280;66582;43.004;-75.010;2023-02-15T03:07:11;100616.29;;;3.80;47.38
77482;BME280;66582;43.004;-75.010;2023-02-15T03:09:35;100616.98;;;3.11;48.51
77482;BME280;66582;43.004;-75.010;2023-02-15T03:11:57;100616.61;;;1.65;52.12
77482;BME280;66582;43.004;-75.010;2023-02-15T03:14:23;100613.28;;;2.66;52.19
77482;BME280;66582;43.004;-75.010;2023-02-15T03:16:48;100608.81;;;2.90;49.69
77482;BME280;66582;43.004;-75.010;2023-02-15T03:19:15;100602.85;;;2.98;50.72
77482;BME280;66582;43.004;-75.010;2023-02-15T03:21:42;100603.24;;;3.11;49.91
77482;BME280;66582;43.004;-75.010;2023-02-15T03:24:08;100602.25;;;3.88;48.37
77482;BME280;66582;43.004;-75.010;2023-02-15T03:26:30;100601.38;;;3.99;48.81
77482;BME280;66582;43.004;-75.010;2023-02-15T03:28:56;100600.35;;;3.31;48.40
77482;BME280;66582;43.004;-75.010;2023-02-15T03:31:21;100594.45;;;3.82;48.18
77482;BME280;66582;43.004;-75.010;2023-02-15T03:33:52;100601.17;;;2.26;51.05
77482;BME280;66582;43.004;-75.010;2023-02-15T03:36:14;100594.31;;;3.40;48.70
77482;BME280;66582;43.004;-75.010;2023-02-15T03:38:42;100590.47;;;4.30;46.78
77482;BME280;66582;43.004;-75.010;2023-02-15T03:41:02;100594.53;;;3.60;48.58
77482;BME280;66582;43.004;-75.010;2023-02-15T03:43:30;100594.06;;;3.57;48.19
77482;BME280;66582;43.004;-75.010;2023-02-15T03:45:57;100592.38;;;3.70;48.00
77482;BME280;66582;43.004;-75.010;2023-02-15T03:48:17;100592.47;;;3.72;48.15
77482;BME280;66582;43.004;-75.010;2023-02-15T03:50:43;100587.82;;;3.96;46.87
77482;BME280;66582;43.004;-75.010;2023-02-15T03:53:11;100579.56;;;3.66;47.69
77482;BME280;66582;43.004;-75.010;2023-02-15T03:55:35;100593.38;;;1.09;51.91
77482;BME280;66582;43.004;-75.010;2023-02-15T03:57:59;100590.74;;;-0.04;58.10
77482;BME280;66582;43.004;-75.010;2023-02-15T04:00:25;100570.86;;;1.41;54.19
77482;BME280;66582;43.004;-75.010;2023-02-15T04:03:08;100573.46;;;1.43;54.65
77482;BME280;66582;43.004;-75.010;2023-02-15T04:05:14;100564.09;;;2.31;52.28
77482;BME280;66582;43.004;-75.010;2023-02-15T04:07:40;100562.91;;;1.58;54.18
77482;BME280;66582;43.004;-75.010;2023-02-15T04:10:08;100553.50;;;1.77;53.63
77482;BME280;66582;43.004;-75.010;2023-02-15T04:12:31;100537.09;;;3.17;50.42
77482;BME280;66582;43.004;-75.010;2023-02-15T04:14:58;100532.46;;;2.06;52.29
77482;BME280;66582;43.004;-75.010;2023-02-15T04:17:23;100532.61;;;1.78;52.39
77482;BME280;66582;43.004;-75.010;2023-02-15T04:19:48;100533.04;;;1.19;55.40
77482;BME280;66582;43.004;-75.010;2023-02-15T04:22:13;100529.89;;;0.46;58.12
77482;BME280;66582;43.004;-75.010;2023-02-15T04:24:38;100527.37;;;0.42;58.77
77482;BME280;66582;43.004;-75.010;2023-02-15T04:27:05;100515.28;;;2.39;54.39
77482;BME280;66582;43.004;-75.010;2023-02-15T04:29:30;100520.70;;;1.33;56.32
77482;BME280;66582;43.004;-75.010;2023-02-15T04:31:58;100520.26;;;3.35;51.84
77482;BME280;66582;43.004;-75.010;2023-02-15T04:34:21;100529.99;;;2.77;52.04
77482;BME280;66582;43.004;-75.010;2023-02-15T04:36:45;100538.72;;;0.35;55.87
77482;BME280;66582;43.004;-75.010;2023-02-15T04:39:13;100535.02;;;1.93;55.05
77482;BME280;66582;43.004;-75.010;2023-02-15T04:41:36;100525.79;;;2.43;52.81
77482;BME280;66582;43.004;-75.010;2023-02-15T04:44:02;100535.70;;;0.38;57.44
77482;BME280;66582;43.004;-75.010;2023-02-15T04:46:28;100531.68;;;0.26;59.36
77482;BME280;66582;43.004;-75.010;2023-02-15T04:48:53;100523.04;;;0.59;58.71
77482;BME280;66582;43.004;-75.010;2023-02-15T04:51:19;100516.36;;;-0.21;61.59
77482;BME280;66582;43.004;-75.010;2023-02-15T04:53:44;100516.44;;;0.44;59.18
77482;BME280;66582;43.004;-75.010;2023-02-15T04:56:09;100506.79;;;1.67;55.94
77482;BME280;66582;43.004;-75.010;2023-02-15T04:58:35;100512.08;;;1.96;55.59
77482;BME280;66582;43.004;-75.010;2023-02-15T05:01:01;100510.82;;;1.80;55.42
77482;BME280;66582;43.004;-75.010;2023-02-15T05:03:26;100516.37;;;1.54;54.77
77482;BME280;66582;43.004;-75.010;2023-02-15T05:05:52;100514.35;;;2.32;55.26
77482;BME280;66582;43.004;-75.010;2023-02-15T05:08:17;100530.14;;;-0.96;61.12
77482;BME280;66582;43.004;-75.010;2023-02-15T05:10:43;100531.77;;;-0.27;64.02
77482;BME280;66582;43.004;-75.010;2023-02-15T05:13:09;100527.88;;;0.16;62.16
77482;BME280;66582;43.004;-75.010;2023-02-15T05:15:35;100525.63;;;0.03;61.40
77482;BME280;66582;43.004;-75.010;2023-02-15T05:18:00;100529.40;;;-0.06;62.50
77482;BME280;66582;43.004;-75.010;2023-02-15T05:20:25;100514.19;;;1.53;57.76
77482;BME280;66582;43.004;-75.010;2023-02-15T05:22:54;100527.13;;;0.82;58.58
77482;BME280;66582;43.004;-75.010;2023-02-15T05:25:16;100534.55;;;0.36;58.53
77482;BME280;66582;43.004;-75.010;2023-02-15T05:27:41;100543.11;;;0.42;57.70
77482;BME280;66582;43.004;-75.010;2023-02-15T05:30:08;100533.91;;;1.70;56.42
77482;BME280;66582;43.004;-75.010;2023-02-15T05:32:33;100518.73;;;2.41;53.38
77482;BME280;66582;43.004;-75.010;2023-02-15T05:34:58;100503.97;;;2.58;53.22
77482;BME280;66582;43.004;-75.010;2023-02-15T05:37:23;100494.37;;;2.80;51.92
77482;BME280;66582;43.004;-75.010;2023-02-15T05:39:49;100499.00;;;1.22;55.37
77482;BME280;66582;43.004;-75.010;2023-02-15T05:42:14;100499.94;;;1.63;56.44
77482;BME280;66582;43.004;-75.010;2023-02-15T05:44:39;100485.37;;;2.81;53.47
77482;BME280;66582;43.004;-75.010;2023-02-15T05:47:05;100483.20;;;2.93;51.74
77482;BME280;66582;43.004;-75.010;2023-02-15T05:49:30;100501.84;;;-0.33;60.17
77482;BME280;66582;43.004;-75.010;2023-02-15T05:51:56;100479.73;;;2.33;55.49
77482;BME280;66582;43.004;-75.010;2023-02-15T05:54:22;100480.76;;;2.06;55.34
77482;BME280;66582;43.004;-75.010;2023-02-15T05:56:46;100501.07;;;-1.66;64.71
77482;BME280;66582;43.004;-75.010;2023-02-15T05:59:12;100492.50;;;-0.69;64.72
77482;BME280;66582;43.004;-75.010;2023-02-15T06:01:38;100482.50;;;-1.06;65.42
77482;BME280;66582;43.004;-75.010;2023-02-15T06:04:04;100483.55;;;-0.75;66.09
77482;BME280;66582;43.004;-75.010;2023-02-15T06:06:29;100467.47;;;0.07;63.56
77482;BME280;66582;43.004;-75.010;2023-02-15T06:08:54;100474.59;;;-1.06;63.70
77482;BME280;66582;43.004;-75.010;2023-02-15T06:11:19;100475.11;;;-0.14;64.61
77482;BME280;66582;43.004;-75.010;2023-02-15T06:13:45;100484.25;;;-0.14;63.17
77482;BME280;66582;43.004;-75.010;2023-02-15T06:16:11;100488.73;;;-0.52;64.41
77482;BME280;66582;43.004;-75.010;2023-02-15T06:18:36;100493.27;;;-1.19;67.73
77482;BME280;66582;43.004;-75.010;2023-02-15T06:21:02;100472.80;;;1.07;59.82
77482;BME280;66582;43.004;-75.010;2023-02-15T06:23:27;100462.80;;;2.17;57.28
77482;BME280;66582;43.004;-75.010;2023-02-15T06:25:52;100452.70;;;3.02;53.34
77482;BME280;66582;43.004;-75.010;2023-02-15T06:28:18;100448.08;;;2.17;54.23
77482;BME280;66582;43.004;-75.010;2023-02-15T06:30:43;100455.01;;;0.46;59.27
77482;BME280;66582;43.004;-75.010;2023-02-15T06:33:09;100448.76;;;1.19;60.32
77482;BME280;66582;43.004;-75.010;2023-02-15T06:35:35;100463.76;;;0.07;63.51
77482;BME280;66582;43.004;-75.010;2023-02-15T06:38:00;100451.73;;;1.05;61.34
77482;BME280;66582;43.004;-75.010;2023-02-15T06:40:26;100452.31;;;1.50;59.49
77482;BME280;66582;43.004;-75.010;2023-02-15T06:42:51;100443.92;;;1.23;59.83
77482;BME280;66582;43.004;-75.010;2023-02-15T06:45:16;100435.38;;;1.48;57.13
77482;BME280;66582;43.004;-75.010;2023-02-15T06:47:41;100422.19;;;2.21;56.50
77482;BME280;66582;43.004;-75.010;2023-02-15T06:50:07;100423.14;;;0.37;59.72
77482;BME280;66582;43.004;-75.010;2023-02-15T06:52:32;100419.94;;;0.02;62.37
77482;BME280;66582;43.004;-75.010;2023-02-15T06:54:57;100407.00;;;1.97;56.40
77482;BME280;66582;43.004;-75.010;2023-02-15T06:57:23;100420.20;;;1.21;58.67
77482;BME280;66582;43.004;-75.010;2023-02-15T06:59:48;100423.87;;;1.24;59.56
77482;BME280;66582;43.004;-75.010;2023-02-15T07:02:13;100444.93;;;-0.10;63.44
77482;BME280;66582;43.004;-75.010;2023-02-15T07:04:38;100462.38;;;0.73;61.83
77482;BME280;66582;43.004;-75.010;2023-02-15T07:07:04;100464.02;;;1.34;58.70
77482;BME280;66582;43.004;-75.010;2023-02-15T07:09:29;100456.03;;;0.98;59.28
77482;BME280;66582;43.004;-75.010;2023-02-15T07:11:54;100465.15;;;-0.41;64.92
77482;BME280;66582;43.004;-75.010;2023-02-15T07:14:19;100466.82;;;-0.66;64.88
77482;BME280;66582;43.004;-75.010;2023-02-15T07:16:44;100451.84;;;-0.79;66.54
77482;BME280;66582;43.004;-75.010;2023-02-15T07:19:10;100444.75;;;-0.90;66.53
77482;BME280;66582;43.004;-75.010;2023-02-15T07:21:36;100445.60;;;-1.51;66.34
77482;BME280;66582;43.004;-75.010;2023-02-15T07:24:01;100420.70;;;-0.27;65.38
77482;BME280;66582;43.004;-75.010;2023-02-15T07:26:26;100423.29;;;-0.15;64.46
77482;BME280;66582;43.004;-75.010;2023-02-15T07:28:51;100410.47;;;-0.24;65.25
77482;BME280;66582;43.004;-75.010;2023-02-15T07:31:17;100396.83;;;-1.27;70.43
77482;BME280;66582;43.004;-75.010;2023-02-15T07:33:41;100398.33;;;-0.96;69.82
77482;BME280;66582;43.004;-75.010;2023-02-15T07:36:07;100394.38;;;-0.12;66.30
77482;BME280;66582;43.004;-75.010;2023-02-15T07:38:33;100380.64;;;2.08;59.70
77482;BME280;66582;43.004;-75.010;2023-02-15T07:40:59;100380.17;;;-1.75;68.95
77482;BME280;66582;43.004;-75.010;2023-02-15T07:43:23;100353.50;;;-0.32;67.41
77482;BME280;66582;43.004;-75.010;2023-02-15T07:45:48;100358.63;;;-0.72;67.70
77482;BME280;66582;43.004;-75.010;2023-02-15T07:48:14;100370.57;;;-2.38;76.16
77482;BME280;66582;43.004;-75.010;2023-02-15T07:50:39;100347.89;;;0.00;68.70
77482;BME280;66582;43.004;-75.010;2023-02-15T07:53:04;100353.28;;;-0.60;65.76
77482;BME280;66582;43.004;-75.010;2023-02-15T07:55:29;100354.77;;;0.19;65.69
77482;BME280;66582;43.004;-75.010;2023-02-15T07:57:55;100351.10;;;-1.05;69.85
77482;BME280;66582;43.004;-75.010;2023-02-15T08:00:21;100326.44;;;1.12;62.33
77482;BME280;66582;43.004;-75.010;2023-02-15T08:02:48;100328.01;;;1.22;60.61
77482;BME280;66582;43.004;-75.010;2023-02-15T08:05:11;100337.74;;;0.87;62.76
77482;BME280;66582;43.004;-75.010;2023-02-15T08:07:36;100325.92;;;2.26;59.70
77482;BME280;66582;43.004;-75.010;2023-02-15T08:10:02;100313.25;;;3.83;54.56
77482;BME280;66582;43.004;-75.010;2023-02-15T08:12:27;100304.09;;;2.33;56.08
77482;BME280;66582;43.004;-75.010;2023-02-15T08:14:52;100288.18;;;2.84;54.65
77482;BME280;66582;43.004;-75.010;2023-02-15T08:17:18;100300.59;;;1.24;58.63
77482;BME280;66582;43.004;-75.010;2023-02-15T08:19:42;100308.82;;;0.65;64.91
77482;BME280;66582;43.004;-75.010;2023-02-15T08:22:11;100304.45;;;1.94;59.74
77482;BME280;66582;43.004;-75.010;2023-02-15T08:24:34;100289.75;;;1.83;57.26
77482;BME280;66582;43.004;-75.010;2023-02-15T08:26:58;100283.76;;;1.77;58.18
77482;BME280;66582;43.004;-75.010;2023-02-15T08:29:25;100281.01;;;2.64;57.46
77482;BME280;66582;43.004;-75.010;2023-02-15T08:31:49;100270.88;;;3.41;54.63
77482;BME280;66582;43.004;-75.010;2023-02-15T08:34:16;100271.22;;;3.41;53.73
77482;BME280;66582;43.004;-75.010;2023-02-15T08:36:39;100283.25;;;1.54;58.65
77482;BME280;66582;43.004;-75.010;2023-02-15T08:39:05;100287.89;;;3.20;56.00
77482;BME280;66582;43.004;-75.010;2023-02-15T08:41:31;100294.91;;;2.49;56.43
77482;BME280;66582;43.004;-75.010;2023-02-15T08:43:56;100299.47;;;3.10;56.83
77482;BME280;66582;43.004;-75.010;2023-02-15T08:46:21;100304.44;;;3.96;54.51
77482;BME280;66582;43.004;-75.010;2023-02-15T08:48:46;100287.46;;;4.99;51.52
77482;BME280;66582;43.004;-75.010;2023-02-15T08:51:12;100294.17;;;4.91;49.06
77482;BME280;66582;43.004;-75.010;2023-02-15T08:53:37;100287.08;;;3.67;51.43
77482;BME280;66582;43.004;-75.010;2023-02-15T08:56:02;100295.84;;;4.11;51.37
77482;BME280;66582;43.004;-75.010;2023-02-15T08:58:27;100289.33;;;4.75;49.87
77482;BME280;66582;43.004;-75.010;2023-02-15T09:00:52;100308.70;;;1.22;58.52
77482;BME280;66582;43.004;-75.010;2023-02-15T09:03:17;100304.55;;;2.20;56.45
77482;BME280;66582;43.004;-75.010;2023-02-15T09:05:42;100307.26;;;1.54;60.01
77482;BME280;66582;43.004;-75.010;2023-02-15T09:08:08;100305.86;;;1.27;58.03
77482;BME280;66582;43.004;-75.010;2023-02-15T09:10:33;100299.15;;;2.07;56.80
77482;BME280;66582;43.004;-75.010;2023-02-15T09:12:58;100296.34;;;1.63;56.95
77482;BME280;66582;43.004;-75.010;2023-02-15T09:15:23;100282.66;;;2.02;60.96
77482;BME280;66582;43.004;-75.010;2023-02-15T09:17:49;100280.80;;;2.43;57.29
77482;BME280;66582;43.004;-75.010;2023-02-15T09:20:14;100280.95;;;3.19;54.02
77482;BME280;66582;43.004;-75.010;2023-02-15T09:22:39;100262.01;;;2.27;55.21
77482;BME280;66582;43.004;-75.010;2023-02-15T09:25:04;100260.28;;;2.01;57.71
77482;BME280;66582;43.004;-75.010;2023-02-15T09:27:30;100276.68;;;0.92;63.33
77482;BME280;66582;43.004;-75.010;2023-02-15T09:29:54;100265.05;;;2.47;57.11
77482;BME280;66582;43.004;-75.010;2023-02-15T09:32:20;100250.12;;;2.67;55.24
77482;BME280;66582;43.004;-75.010;2023-02-15T09:34:45;100229.46;;;4.05;51.79
77482;BME280;66582;43.004;-75.010;2023-02-15T09:37:10;100223.14;;;4.29;50.53
77482;BME280;66582;43.004;-75.010;2023-02-15T09:39:39;100198.04;;;5.09;48.54
77482;BME280;66582;43.004;-75.010;2023-02-15T09:42:22;100196.32;;;4.85;49.10
77482;BME280;66582;43.004;-75.010;2023-02-15T09:44:33;100205.79;;;3.00;52.83
77482;BME280;66582;43.004;-75.010;2023-02-15T09:47:03;100210.22;;;4.38;51.16
77482;BME280;66582;43.004;-75.010;2023-02-15T09:49:22;100202.03;;;5.19;48.46
77482;BME280;66582;43.004;-75.010;2023-02-15T09:51:59;100188.73;;;5.41;47.36
77482;BME280;66582;43.004;-75.010;2023-02-15T09:54:16;100184.97;;;5.85;46.03
77482;BME280;66582;43.004;-75.010;2023-02-15T09:56:34;100178.06;;;5.78;45.39
77482;BME280;66582;43.004;-75.010;2023-02-15T09:59:03;100176.43;;;4.40;48.58
77482;BME280;66582;43.004;-75.010;2023-02-15T10:01:30;100180.06;;;3.36;50.19
77482;BME280;66582;43.004;-75.010;2023-02-15T10:03:59;100143.51;;;5.06;49.28
77482;BME280;66582;43.004;-75.010;2023-02-15T10:06:30;100031.57;;;5.69;47.44
77482;BME280;66582;43.004;-75.010;2023-02-15T10:08:51;100039.15;;;1.65;56.00
77482;BME280;66582;43.004;-75.010;2023-02-15T10:11:10;100078.49;;;2.09;55.72
77482;BME280;66582;43.004;-75.010;2023-02-15T10:13:36;100106.04;;;3.00;54.26
77482;BME280;66582;43.004;-75.010;2023-02-15T10:16:07;100093.05;;;3.88;51.52
77482;BME280;66582;43.004;-75.010;2023-02-15T10:18:31;100130.28;;;4.36;49.04
77482;BME280;66582;43.004;-75.010;2023-02-15T10:20:52;100130.94;;;5.01;47.70
77482;BME280;66582;43.004;-75.010;2023-02-15T10:23:24;100132.61;;;5.18;48.29
77482;BME280;66582;43.004;-75.010;2023-02-15T10:25:42;100139.32;;;6.12;45.37
77482;BME280;66582;43.004;-75.010;2023-02-15T10:28:05;100125.25;;;5.56;45.67
77482;BME280;66582;43.004;-75.010;2023-02-15T10:30:33;100129.38;;;2.55;52.16
77482;BME280;66582;43.004;-75.010;2023-02-15T10:32:58;100134.40;;;3.75;49.31
77482;BME280;66582;43.004;-75.010;2023-02-15T10:35:22;100131.93;;;3.77;48.33
77482;BME280;66582;43.004;-75.010;2023-02-15T10:37:50;100130.60;;;5.04;45.51
77482;BME280;66582;43.004;-75.010;2023-02-15T10:40:14;100122.96;;;5.11;46.66
77482;BME280;66582;43.004;-75.010;2023-02-15T10:42:40;100107.20;;;5.38;45.83
77482;BME280;66582;43.004;-75.010;2023-02-15T10:45:08;100110.20;;;4.69;47.41
77482;BME280;66582;43.004;-75.010;2023-02-15T10:47:33;100110.72;;;3.23;51.55
77482;BME280;66582;43.004;-75.010;2023-02-15T10:49:59;100122.87;;;2.79;50.71
77482;BME280;66582;43.004;-75.010;2023-02-15T10:52:25;100097.42;;;3.66;50.05
77482;BME280;66582;43.004;-75.010;2023-02-15T10:54:42;100113.79;;;2.23;52.37
77482;BME280;66582;43.004;-75.010;2023-02-15T10:57:07;100099.23;;;3.07;51.59
77482;BME280;66582;43.004;-75.010;2023-02-15T10:59:40;100072.11;;;3.25;51.53
77482;BME280;66582;43.004;-75.010;2023-02-15T11:01:58;100073.07;;;2.50;53.74
77482;BME280;66582;43.004;-75.010;2023-02-15T11:04:32;100061.55;;;2.86;51.59
77482;BME280;66582;43.004;-75.010;2023-02-15T11:06:48;100046.85;;;3.27;51.58
77482;BME280;66582;43.004;-75.010;2023-02-15T11:09:11;100067.86;;;1.46;54.17
77482;BME280;66582;43.004;-75.010;2023-02-15T11:11:37;100074.55;;;2.33;54.45
77482;BME280;66582;43.004;-75.010;2023-02-15T11:14:02;100094.49;;;1.58;54.51
77482;BME280;66582;43.004;-75.010;2023-02-15T11:16:28;100094.66;;;2.94;53.10
77482;BME280;66582;43.004;-75.010;2023-02-15T11:18:54;100086.40;;;4.87;47.86
77482;BME280;66582;43.004;-75.010;2023-02-15T11:21:21;100074.47;;;4.64;47.14
77482;BME280;66582;43.004;-75.010;2023-02-15T11:23:43;100072.26;;;3.77;47.15
77482;BME280;66582;43.004;-75.010;2023-02-15T11:26:11;100070.00;;;4.01;48.19
77482;BME280;66582;43.004;-75.010;2023-02-15T11:28:34;100091.75;;;4.61;47.40
77482;BME280;66582;43.004;-75.010;2023-02-15T11:30:57;100100.81;;;4.64;46.04
77482;BME280;66582;43.004;-75.010;2023-02-15T11:33:25;100117.14;;;3.22;49.55
77482;BME280;66582;43.004;-75.010;2023-02-15T11:35:52;100112.10;;;3.90;49.10
77482;BME280;66582;43.004;-75.010;2023-02-15T11:38:16;100119.28;;;4.75;46.61
77482;BME280;66582;43.004;-75.010;2023-02-15T11:40:43;100144.41;;;4.71;46.31
77482;BME280;66582;43.004;-75.010;2023-02-15T11:43:06;100146.10;;;4.95;45.50
77482;BME280;66582;43.004;-75.010;2023-02-15T11:45:29;100132.03;;;5.76;44.25
77482;BME280;66582;43.004;-75.010;2023-02-15T11:47:53;100127.27;;;4.71;45.99
77482;BME280;66582;43.004;-75.010;2023-02-15T11:50:22;100112.46;;;3.75;47.53
77482;BME280;66582;43.004;-75.010;2023-02-15T11:52:43;100102.98;;;2.74;49.94
77482;BME280;66582;43.004;-75.010;2023-02-15T11:55:18;100093.98;;;3.41;50.12
77482;BME280;66582;43.004;-75.010;2023-02-15T11:57:38;100084.76;;;4.52;48.01
77482;BME280;66582;43.004;-75.010;2023-02-15T12:00:02;100076.54;;;5.16;46.62
77482;BME280;66582;43.004;-75.010;2023-02-15T12:02:23;100072.41;;;4.85;46.56
77482;BME280;66582;43.004;-75.010;2023-02-15T12:04:52;100068.92;;;4.76;46.24
77482;BME280;66582;43.004;-75.010;2023-02-15T12:07:17;100070.13;;;4.99;46.53
77482;BME280;66582;43.004;-75.010;2023-02-15T12:09:47;100076.37;;;4.47;47.36
77482;BME280;66582;43.004;-75.010;2023-02-15T12:12:20;100088.68;;;3.66;49.60
77482;BME280;66582;43.004;-75.010;2023-02-15T12:14:46;100096.75;;;3.83;48.85
77482;BME280;66582;43.004;-75.010;2023-02-15T12:16:56;100076.25;;;4.26;48.05
77482;BME280;66582;43.004;-75.010;2023-02-15T12:19:28;100067.48;;;3.98;48.71
77482;BME280;66582;43.004;-75.010;2023-02-15T12:21:50;100054.51;;;4.54;46.95
77482;BME280;66582;43.004;-75.010;2023-02-15T12:24:17;100066.56;;;5.47;45.19
77482;BME280;66582;43.004;-75.010;2023-02-15T12:26:37;100052.23;;;4.71;45.98
77482;BME280;66582;43.004;-75.010;2023-02-15T12:29:06;100056.84;;;5.11;45.95